Time;durP1;ratioP1;P1;durP2;ratioP2;P2;SDS_P1;SDS_P2;PMS_P1;PMS_P2;Temp;Humidity;BMP_temperature;BMP_pressure;BME280_temperature;BME280_humidity;BME280_pressure;Samples;Min_cycle;Max_cycle;Signal;HPM_P1;HPM_P2
2023/12/28 00:04:51;;;;;;;5.32;3.17;;;;;;;-6.29;87.76;100344.28;10429264;28;20044;-66
2023/12/28 00:09:53;;;;;;;6.63;3.92;;;;;;;-6.47;86.01;100348.06;10422386;28;20041;-67
2023/12/28 00:14:56;;;;;;;6.32;3.50;;;;;;;-6.08;88.04;100355.94;10420463;28;20038;-67
2023/12/28 00:19:58;;;;;;;5.82;3.65;;;;;;;-6.25;87.10;100358.91;10408761;28;20038;-67
2023/12/28 00:25:00;;;;;;;6.38;3.88;;;;;;;-6.17;88.06;100370.38;10422284;28;20033;-67
2023/12/28 00:30:05;;;;;;;5.25;3.90;;;;;;;-5.91;88.16;100380.66;10419880;28;20038;-67
2023/12/28 00:35:07;;;;;;;6.53;3.33;;;;;;;-6.33;88.85;100385.69;10419434;28;20029;-67
2023/12/28 00:40:10;;;;;;;4.70;3.13;;;;;;;-6.09;90.46;100388.16;10427848;28;20041;-67
2023/12/28 00:45:12;;;;;;;5.35;3.08;;;;;;;-6.19;90.56;100387.59;10438763;28;20064;-66
2023/12/28 00:50:15;;;;;;;5.40;3.25;;;;;;;-5.90;90.90;100386.84;10426997;28;20045;-66
2023/12/28 00:55:17;;;;;;;5.40;3.13;;;;;;;-6.31;91.06;100397.03;10435458;28;20038;-67
2023/12/28 01:00:19;;;;;;;4.95;3.50;;;;;;;-6.66;91.61;100385.06;10432845;28;20421;-67
2023/12/28 01:05:25;;;;;;;6.50;3.25;;;;;;;-6.52;91.60;100382.47;10427984;28;20049;-67
2023/12/28 01:10:28;;;;;;;4.50;2.83;;;;;;;-6.45;91.49;100383.41;10423270;28;20052;-67
2023/12/28 01:15:30;;;;;;;4.82;2.92;;;;;;;-6.28;90.94;100378.81;10432706;28;20041;-67
2023/12/28 01:20:32;;;;;;;5.60;3.00;;;;;;;-6.13;90.86;100389.53;10427766;28;20052;-66
2023/12/28 01:25:35;;;;;;;6.00;3.42;;;;;;;-6.06;89.81;100393.16;10421137;28;20046;-66
2023/12/28 01:30:39;;;;;;;6.20;3.42;;;;;;;-6.32;89.14;100400.69;10425684;28;20034;-66
2023/12/28 01:35:41;;;;;;;6.90;3.92;;;;;;;-6.44;90.50;100389.59;10427463;28;20037;-66
2023/12/28 01:40:45;;;;;;;6.32;3.65;;;;;;;-6.62;91.07;100405.88;10427030;28;20025;-66
2023/12/28 01:45:48;;;;;;;5.55;3.25;;;;;;;-6.26;90.88;100403.47;10435149;28;20049;-66
2023/12/28 01:50:51;;;;;;;6.90;3.40;;;;;;;-6.48;90.44;100423.81;10426638;28;20041;-66
2023/12/28 01:55:54;;;;;;;5.65;3.55;;;;;;;-6.42;90.64;100420.47;10425702;28;20038;-66
2023/12/28 02:00:56;;;;;;;5.82;3.53;;;;;;;-6.19;89.98;100412.47;10414047;28;20501;-66
2023/12/28 02:06:00;;;;;;;7.70;3.45;;;;;;;-6.57;89.62;100422.22;10428152;28;20420;-65
2023/12/28 02:11:04;;;;;;;5.70;3.10;;;;;;;-6.46;90.14;100419.13;10422798;28;20422;-66
2023/12/28 02:16:31;;;;;;;5.32;3.75;;;;;;;-6.50;89.67;100425.00;10437156;28;20068;-66
2023/12/28 02:21:34;;;;;;;6.43;3.40;;;;;;;-6.32;89.31;100430.91;10432843;28;20056;-67
2023/12/28 02:26:36;;;;;;;7.18;3.80;;;;;;;-6.49;88.72;100429.34;10435940;28;20041;-67
2023/12/28 02:31:46;;;;;;;5.82;3.38;;;;;;;-6.64;88.66;100410.56;10408690;28;20045;-66
2023/12/28 02:36:49;;;;;;;6.25;3.30;;;;;;;-6.59;87.73;100429.56;10407637;28;20042;-67
2023/12/28 02:41:51;;;;;;;5.85;3.60;;;;;;;-6.69;88.93;100418.28;10427081;28;20034;-66
2023/12/28 02:46:53;;;;;;;4.78;3.13;;;;;;;-6.87;89.62;100420.38;10437406;28;20517;-66
2023/12/28 02:51:56;;;;;;;5.25;3.17;;;;;;;-6.40;90.25;100418.44;10426461;28;20037;-65
2023/12/28 02:56:58;;;;;;;4.90;3.10;;;;;;;-6.32;89.61;100425.56;10414142;28;20037;-66
2023/12/28 03:02:01;;;;;;;6.15;3.70;;;;;;;-6.30;89.14;100422.72;10421942;28;20044;-67
2023/12/28 03:07:05;;;;;;;5.57;3.42;;;;;;;-6.76;90.06;100401.31;10432679;28;20041;-67
2023/12/28 03:12:07;;;;;;;5.45;3.30;;;;;;;-6.60;90.03;100414.53;10407172;28;21368;-67
2023/12/28 03:17:11;;;;;;;6.50;4.00;;;;;;;-6.49;90.42;100432.84;10424263;28;20307;-67
2023/12/28 03:22:14;;;;;;;5.80;3.65;;;;;;;-6.43;89.77;100424.13;10401318;28;20042;-65
2023/12/28 03:27:16;;;;;;;6.15;3.75;;;;;;;-5.97;89.90;100417.97;10420598;28;20048;-65
2023/12/28 03:32:18;;;;;;;6.07;3.22;;;;;;;-5.77;88.35;100425.25;10421021;28;20414;-66
2023/12/28 03:37:21;;;;;;;7.00;3.65;;;;;;;-5.95;87.63;100427.44;10439215;28;20434;-65
2023/12/28 03:42:23;;;;;;;6.22;3.78;;;;;;;-5.79;89.14;100435.31;10422514;28;20045;-66
2023/12/28 03:47:25;;;;;;;5.53;3.55;;;;;;;-5.49;88.25;100417.50;10420055;28;20056;-66
2023/12/28 03:52:30;;;;;;;7.72;3.60;;;;;;;-5.65;87.90;100427.50;10418516;28;20034;-64
2023/12/28 03:57:33;;;;;;;4.47;2.70;;;;;;;-6.23;90.09;100437.03;10414512;28;20513;-65
2023/12/28 04:02:36;;;;;;;5.35;2.85;;;;;;;-5.69;89.53;100427.06;10416804;28;20041;-65
2023/12/28 04:07:38;;;;;;;9.55;3.88;;;;;;;-5.55;90.21;100436.13;10416546;28;20066;-66
2023/12/28 04:12:41;;;;;;;5.07;2.63;;;;;;;-5.41;89.65;100432.59;10409100;28;20034;-67
2023/12/28 04:17:44;;;;;;;4.72;2.88;;;;;;;-4.88;88.13;100419.97;10418101;28;20072;-67
2023/12/28 04:22:47;;;;;;;4.85;2.70;;;;;;;-5.16;87.72;100441.22;10424621;28;20042;-65
2023/12/28 04:27:50;;;;;;;22.02;12.00;;;;;;;-4.92;87.64;100432.06;10434753;28;20421;-67
2023/12/28 04:32:53;;;;;;;7.45;3.80;;;;;;;-5.19;88.06;100423.69;10423130;28;20045;-66
2023/12/28 04:37:55;;;;;;;9.13;3.80;;;;;;;-4.93;87.47;100419.72;10413764;28;20045;-66
2023/12/28 04:42:57;;;;;;;5.97;3.47;;;;;;;-4.98;87.39;100422.97;10439408;28;20037;-65
2023/12/28 04:48:00;;;;;;;5.53;2.78;;;;;;;-4.51;88.27;100410.13;10440850;28;20068;-66
2023/12/28 04:53:04;;;;;;;3.97;2.97;;;;;;;-4.03;86.85;100398.69;10440254;28;20029;-65
2023/12/28 04:58:06;;;;;;;9.45;3.88;;;;;;;-4.40;86.01;100402.44;10442137;28;20045;-66
2023/12/28 05:03:08;;;;;;;8.20;4.13;;;;;;;-4.13;86.60;100408.91;10443898;28;20041;-66
2023/12/28 05:08:11;;;;;;;8.50;3.28;;;;;;;-4.02;85.84;100394.97;10442577;28;20034;-63
2023/12/28 05:13:13;;;;;;;5.63;3.22;;;;;;;-3.84;85.97;100407.09;10443449;28;20046;-65
2023/12/28 05:18:15;;;;;;;7.43;3.13;;;;;;;-4.18;86.68;100392.56;10439432;28;20612;-66
2023/12/28 05:23:18;;;;;;;7.10;3.50;;;;;;;-4.10;87.38;100397.81;10445098;28;20045;-65
2023/12/28 05:28:20;;;;;;;5.75;3.60;;;;;;;-4.07;88.02;100397.41;10443517;28;20033;-65
2023/12/28 05:33:22;;;;;;;6.75;3.53;;;;;;;-3.71;87.61;100399.16;10409011;28;20061;-66
2023/12/28 05:38:24;;;;;;;6.20;2.70;;;;;;;-3.70;86.91;100398.13;10446971;28;20437;-66
2023/12/28 05:43:27;;;;;;;8.25;3.70;;;;;;;-3.84;87.04;100401.72;10437614;28;20064;-65
2023/12/28 05:48:30;;;;;;;7.13;4.03;;;;;;;-3.59;87.93;100404.84;10420051;28;20045;-65
2023/12/28 05:53:33;;;;;;;7.57;3.30;;;;;;;-3.62;87.08;100406.06;10442101;28;20044;-65
2023/12/28 05:58:38;;;;;;;5.25;3.50;;;;;;;-3.46;87.29;100405.75;10445857;28;20045;-65
2023/12/28 06:03:40;;;;;;;8.70;3.92;;;;;;;-3.50;86.43;100415.19;10434021;28;20524;-65
2023/12/28 06:08:42;;;;;;;7.00;3.65;;;;;;;-3.23;86.84;100415.41;10443931;28;20045;-65
2023/12/28 06:13:45;;;;;;;5.47;3.38;;;;;;;-3.25;86.74;100417.44;10445042;28;20047;-65
2023/12/28 06:18:47;;;;;;;5.13;2.95;;;;;;;-3.14;87.12;100419.56;10446099;28;20425;-68
2023/12/28 06:23:50;;;;;;;6.97;3.35;;;;;;;-3.10;86.38;100413.63;10442219;28;20064;-65
2023/12/28 06:28:52;;;;;;;5.18;3.25;;;;;;;-3.03;87.00;100413.66;10434455;28;20034;-66
2023/12/28 06:33:58;;;;;;;6.72;3.17;;;;;;;-2.86;86.22;100412.31;10416100;28;20041;-65
2023/12/28 06:39:01;;;;;;;5.15;3.13;;;;;;;-2.75;85.65;100422.50;10432484;28;20048;-66
2023/12/28 06:44:04;;;;;;;7.47;4.20;;;;;;;-2.66;84.90;100425.00;10426104;28;20052;-66
2023/12/28 06:49:08;;;;;;;9.40;4.07;;;;;;;-3.18;85.42;100432.56;10426375;28;20056;-67
2023/12/28 06:54:10;;;;;;;7.55;4.00;;;;;;;-3.04;85.45;100431.63;10437927;28;20053;-66
2023/12/28 06:59:13;;;;;;;11.63;4.95;;;;;;;-3.45;85.45;100426.19;10443736;28;20045;-67
2023/12/28 07:04:17;;;;;;;11.27;4.32;;;;;;;-3.28;86.63;100425.91;10428805;28;20041;-67
2023/12/28 07:09:19;;;;;;;8.02;4.80;;;;;;;-3.51;86.80;100426.13;10433786;28;20054;-66
2023/12/28 07:14:21;;;;;;;8.88;4.55;;;;;;;-3.68;87.62;100430.94;10414036;28;20084;-66
2023/12/28 07:19:24;;;;;;;8.68;4.55;;;;;;;-3.38;87.24;100427.06;10434805;28;20050;-66
2023/12/28 07:24:26;;;;;;;10.85;5.63;;;;;;;-3.63;87.01;100431.22;10423146;28;20057;-66
2023/12/28 07:29:28;;;;;;;6.80;3.75;;;;;;;-3.48;87.98;100431.94;10430195;28;20033;-67
2023/12/28 07:34:31;;;;;;;10.02;4.88;;;;;;;-3.47;88.37;100430.94;10420359;28;20042;-67
2023/12/28 07:39:34;;;;;;;8.93;4.53;;;;;;;-3.57;88.01;100434.97;10441351;28;20509;-67
2023/12/28 07:44:36;;;;;;;9.85;4.80;;;;;;;-3.28;88.18;100439.31;10415965;28;20053;-66
2023/12/28 07:49:38;;;;;;;8.73;4.70;;;;;;;-3.46;88.68;100431.75;10402832;28;20042;-67
2023/12/28 07:54:40;;;;;;;11.38;5.28;;;;;;;-2.97;88.87;100428.97;10416969;28;20544;-66
2023/12/28 07:59:43;;;;;;;11.75;5.53;;;;;;;-2.99;88.39;100425.66;10438904;28;20030;-67
2023/12/28 08:04:46;;;;;;;11.00;4.72;;;;;;;-2.80;87.76;100424.09;10457124;28;20044;-67
2023/12/28 08:09:49;;;;;;;12.05;5.22;;;;;;;-2.83;88.37;100416.44;10430318;28;20042;-67
2023/12/28 08:14:51;;;;;;;8.05;4.20;;;;;;;-2.67;89.05;100417.97;10400703;28;20042;-67
2023/12/28 08:19:53;;;;;;;10.05;5.20;;;;;;;-3.13;89.57;100419.38;10404852;28;20037;-66
2023/12/28 08:24:57;;;;;;;12.25;5.10;;;;;;;-2.63;90.68;100414.66;10438174;28;20045;-67
2023/12/28 08:29:59;;;;;;;10.85;5.30;;;;;;;-2.56;89.66;100412.84;10441219;28;20633;-66
2023/12/28 08:35:02;;;;;;;7.50;4.40;;;;;;;-3.04;91.59;100415.50;10445606;28;20662;-66
2023/12/28 08:40:05;;;;;;;8.98;3.85;;;;;;;-2.89;91.19;100415.38;10439865;28;20034;-67
2023/12/28 08:45:07;;;;;;;5.53;3.28;;;;;;;-2.54;91.59;100404.59;10439707;28;20056;-67
2023/12/28 08:50:10;;;;;;;4.65;2.58;;;;;;;-2.89;90.84;100409.19;10440266;28;20519;-67
2023/12/28 08:55:12;;;;;;;4.68;2.70;;;;;;;-2.31;91.68;100394.31;10444237;28;20045;-66
2023/12/28 09:00:16;;;;;;;6.95;2.88;;;;;;;-1.99;89.83;100387.34;10444860;28;20045;-67
2023/12/28 09:05:19;;;;;;;6.05;2.70;;;;;;;-2.13;88.99;100405.31;10407544;28;20540;-67
2023/12/28 09:10:22;;;;;;;3.53;2.45;;;;;;;-2.48;89.38;100396.53;10422866;28;20044;-65
2023/12/28 09:15:24;;;;;;;3.70;1.83;;;;;;;-2.02;89.51;100403.06;10439947;28;20049;-66
2023/12/28 09:20:27;;;;;;;2.60;1.98;;;;;;;-2.36;89.51;100404.84;10438465;28;20769;-65
2023/12/28 09:25:30;;;;;;;3.67;2.30;;;;;;;-2.35;89.75;100400.31;10445708;28;20037;-66
2023/12/28 09:30:33;;;;;;;2.83;1.75;;;;;;;-2.58;91.11;100401.47;10441111;28;20116;-66
2023/12/28 09:35:36;;;;;;;3.95;2.20;;;;;;;-2.37;89.93;100407.75;10441544;28;20410;-66
2023/12/28 09:40:41;;;;;;;4.20;2.10;;;;;;;-2.61;91.43;100409.09;10435862;28;20038;-65
2023/12/28 09:45:48;;;;;;;3.10;2.10;;;;;;;-2.22;91.41;100408.41;10433437;28;20064;-66
2023/12/28 09:50:54;;;;;;;2.05;1.80;;;;;;;-1.79;88.59;100406.16;10431673;28;20399;-66
2023/12/28 09:55:57;;;;;;;4.10;2.10;;;;;;;-1.91;88.99;100402.44;10418650;28;20132;-65
2023/12/28 10:01:01;;;;;;;3.45;1.85;;;;;;;-1.59;87.95;100409.69;10430364;28;20063;-65
2023/12/28 10:06:04;;;;;;;3.33;1.75;;;;;;;-1.71;88.05;100410.53;10444678;28;20033;-66
2023/12/28 10:11:07;;;;;;;3.00;1.80;;;;;;;-1.60;87.77;100412.59;10442445;28;20513;-66
2023/12/28 10:16:15;;;;;;;4.78;2.05;;;;;;;-1.45;87.01;100410.50;10428889;28;20523;-65
2023/12/28 10:21:18;;;;;;;3.30;1.90;;;;;;;-1.50;86.92;100401.44;10440162;28;20037;-65
2023/12/28 10:26:21;;;;;;;2.95;1.58;;;;;;;-1.45;86.93;100391.69;10433244;28;20044;-66
2023/12/28 10:31:24;;;;;;;4.03;2.22;;;;;;;-1.40;87.66;100391.03;10440624;28;20037;-69
2023/12/28 10:36:27;;;;;;;3.38;2.55;;;;;;;-1.44;86.73;100389.81;10440767;28;20045;-67
2023/12/28 10:41:30;;;;;;;7.57;2.50;;;;;;;-1.60;88.09;100389.19;10442268;28;20037;-67
2023/12/28 10:46:43;;;;;;;7.13;3.22;;;;;;;-1.45;87.49;100380.91;10436763;28;20045;-67
2023/12/28 10:51:52;;;;;;;3.92;3.22;;;;;;;-1.41;87.08;100386.69;10431277;28;20057;-65
2023/12/28 10:57:01;;;;;;;5.35;3.13;;;;;;;-1.53;87.11;100378.47;10430144;28;20167;-67
2023/12/28 11:02:06;;;;;;;6.25;3.63;;;;;;;-1.58;88.04;100389.81;10439471;28;20036;-67
2023/12/28 11:07:13;;;;;;;6.75;4.10;;;;;;;-1.70;88.38;100377.22;10437598;28;20037;-65
2023/12/28 11:12:20;;;;;;;8.53;4.07;;;;;;;-1.47;89.42;100366.84;10426809;28;20037;-67
2023/12/28 11:17:24;;;;;;;9.57;4.57;;;;;;;-1.32;88.73;100356.69;10431579;28;20048;-67
2023/12/28 11:22:27;;;;;;;5.68;3.92;;;;;;;-1.67;88.65;100356.09;10431626;28;20489;-68
2023/12/28 11:27:40;;;;;;;7.25;3.28;;;;;;;-1.76;88.83;100360.03;10440475;28;20037;-67
2023/12/28 11:32:43;;;;;;;6.00;3.90;;;;;;;-1.43;89.97;100353.78;10438488;28;20417;-66
2023/12/28 11:37:49;;;;;;;8.32;4.18;;;;;;;-1.50;89.68;100340.38;10442218;28;20421;-67
2023/12/28 11:42:52;;;;;;;9.60;4.05;;;;;;;-1.46;90.30;100340.75;10437736;28;20034;-67
2023/12/28 11:48:02;;;;;;;9.25;4.13;;;;;;;-1.14;90.45;100330.94;10424458;28;20054;-66
2023/12/28 11:53:06;;;;;;;8.90;3.90;;;;;;;-1.26;90.03;100336.97;10402149;28;20168;-66
2023/12/28 11:58:08;;;;;;;13.13;5.55;;;;;;;-1.41;90.92;100338.25;10432812;28;20447;-68
2023/12/28 12:03:12;;;;;;;13.65;5.43;;;;;;;-1.31;91.68;100322.50;10426866;28;20029;-65
2023/12/28 12:08:15;;;;;;;14.35;5.68;;;;;;;-1.38;91.45;100329.78;10426910;28;20049;-65
2023/12/28 12:13:18;;;;;;;11.95;5.43;;;;;;;-1.41;92.16;100319.41;10421413;28;20041;-66
2023/12/28 12:18:21;;;;;;;9.80;5.25;;;;;;;-1.40;91.91;100319.22;10436343;28;20060;-67
2023/12/28 12:23:23;;;;;;;13.15;5.68;;;;;;;-1.53;91.86;100300.44;10424983;28;20509;-67
2023/12/28 12:28:25;;;;;;;10.18;6.05;;;;;;;-1.34;92.95;100296.03;10413512;28;20038;-67
2023/12/28 12:33:28;;;;;;;11.10;5.80;;;;;;;-1.14;93.67;100280.63;10434380;28;20581;-66
2023/12/28 12:38:31;;;;;;;13.65;6.90;;;;;;;-1.85;92.69;100286.00;10423146;28;20038;-67
2023/12/28 12:43:34;;;;;;;16.52;7.20;;;;;;;-2.18;93.30;100296.75;10426859;28;20054;-66
2023/12/28 12:48:36;;;;;;;17.67;7.45;;;;;;;-2.28;94.26;100288.25;10429672;28;20049;-67
2023/12/28 12:53:39;;;;;;;11.35;5.70;;;;;;;-2.36;95.38;100281.25;10424504;28;20044;-67
2023/12/28 12:58:42;;;;;;;12.90;5.13;;;;;;;-2.34;95.98;100265.75;10443337;28;20041;-64
2023/12/28 13:03:45;;;;;;;8.10;4.50;;;;;;;-2.41;96.78;100266.78;10432170;28;20040;-66
2023/12/28 13:08:48;;;;;;;9.85;4.30;;;;;;;-2.36;97.37;100264.31;10443413;28;20037;-67
2023/12/28 13:13:51;;;;;;;9.82;4.55;;;;;;;-2.40;97.39;100263.91;10439168;28;20033;-66
2023/12/28 13:18:53;;;;;;;6.22;3.38;;;;;;;-2.44;97.15;100257.25;10440312;28;20029;-66
2023/12/28 13:23:59;;;;;;;6.55;3.10;;;;;;;-2.50;97.29;100250.03;10434957;28;20524;-67
2023/12/28 13:29:01;;;;;;;7.75;3.30;;;;;;;-2.56;97.89;100224.00;10443150;28;20561;-65
2023/12/28 13:34:03;;;;;;;5.72;2.90;;;;;;;-2.61;98.07;100234.50;10443226;28;20044;-66
2023/12/28 13:39:08;;;;;;;3.63;2.67;;;;;;;-2.56;98.17;100224.81;10420088;28;20422;-67
2023/12/28 13:44:12;;;;;;;6.65;3.05;;;;;;;-2.53;98.33;100226.25;10425562;28;20509;-68
2023/12/28 13:49:14;;;;;;;7.45;3.25;;;;;;;-2.50;98.24;100217.78;10426592;28;20391;-66
2023/12/28 13:54:19;;;;;;;9.00;4.38;;;;;;;-2.48;97.53;100221.09;10430168;28;20052;-66
2023/12/28 13:59:21;;;;;;;10.88;5.20;;;;;;;-2.40;97.07;100222.75;10441204;28;20036;-67
2023/12/28 14:04:24;;;;;;;12.75;4.78;;;;;;;-2.43;97.35;100223.97;10439988;28;20045;-67
2023/12/28 14:09:26;;;;;;;13.68;5.13;;;;;;;-2.47;96.49;100217.38;10411327;28;20038;-67
2023/12/28 14:14:28;;;;;;;9.13;4.43;;;;;;;-2.45;96.61;100216.13;10403732;28;20046;-66
2023/12/28 14:19:32;;;;;;;9.55;4.32;;;;;;;-2.44;96.00;100217.78;10427945;28;20409;-67
2023/12/28 14:24:35;;;;;;;11.43;4.63;;;;;;;-2.43;95.23;100215.91;10407775;28;20034;-68
2023/12/28 14:29:38;;;;;;;9.98;4.30;;;;;;;-2.44;94.60;100225.00;10418114;28;20033;-68
2023/12/28 14:34:41;;;;;;;7.07;3.78;;;;;;;-2.44;94.04;100206.22;10408750;28;20038;-66
2023/12/28 14:39:43;;;;;;;9.90;3.80;;;;;;;-2.50;93.64;100207.88;10400093;28;20064;-68
2023/12/28 14:44:47;;;;;;;8.05;4.82;;;;;;;-2.47;93.16;100195.88;10444632;28;20057;-68
2023/12/28 14:49:50;;;;;;;10.63;5.03;;;;;;;-2.49;92.07;100200.63;10444090;28;20048;-68
2023/12/28 14:54:54;;;;;;;14.10;6.50;;;;;;;-2.52;91.67;100198.38;10438345;28;20033;-67
2023/12/28 14:59:57;;;;;;;10.93;6.18;;;;;;;-2.56;90.51;100189.91;10436420;28;20042;-68
2023/12/28 15:05:00;;;;;;;10.65;4.80;;;;;;;-2.49;90.56;100193.41;10443675;28;20033;-67
2023/12/28 15:10:03;;;;;;;13.93;4.55;;;;;;;-2.50;89.70;100180.19;10442505;28;20076;-67
2023/12/28 15:15:07;;;;;;;6.32;3.88;;;;;;;-2.45;88.90;100177.69;10438200;28;20034;-67
2023/12/28 15:20:11;;;;;;;6.07;2.95;;;;;;;-2.45;86.44;100172.31;10444817;28;20044;-66
2023/12/28 15:25:15;;;;;;;3.58;2.08;;;;;;;-2.39;86.42;100166.13;10446413;28;20505;-68
2023/12/28 15:30:17;;;;;;;8.38;2.22;;;;;;;-2.40;85.37;100161.78;10437634;28;20053;-66
2023/12/28 15:35:19;;;;;;;7.20;3.03;;;;;;;-2.39;85.21;100160.75;10415280;28;20057;-69
2023/12/28 15:40:22;;;;;;;4.13;2.53;;;;;;;-2.38;85.17;100151.66;10439236;28;20719;-68
2023/12/28 15:45:26;;;;;;;7.43;2.25;;;;;;;-2.34;84.38;100144.81;10428240;28;20045;-66
2023/12/28 15:50:28;;;;;;;4.80;2.33;;;;;;;-2.36;82.60;100154.97;10424767;28;20200;-65
2023/12/28 15:55:31;;;;;;;9.45;3.45;;;;;;;-2.34;82.91;100136.78;10439440;28;20423;-67
2023/12/28 16:00:33;;;;;;;8.15;3.33;;;;;;;-2.35;82.30;100129.75;10428858;28;20079;-66
2023/12/28 16:05:37;;;;;;;4.97;2.33;;;;;;;-2.39;81.83;100128.53;10413736;28;20595;-65
2023/12/28 16:10:39;;;;;;;2.20;1.23;;;;;;;-2.47;81.44;100126.03;10433125;28;20037;-66
2023/12/28 16:15:43;;;;;;;2.13;1.00;;;;;;;-2.47;82.24;100112.59;10414936;28;20033;-67
2023/12/28 16:20:46;;;;;;;2.25;0.90;;;;;;;-2.48;82.01;100105.59;10436994;28;20041;-69
2023/12/28 16:25:48;;;;;;;1.58;0.93;;;;;;;-2.45;82.44;100107.84;10438032;28;20413;-68
2023/12/28 16:30:50;;;;;;;2.88;1.10;;;;;;;-2.41;82.63;100092.97;10426180;28;20034;-67
2023/12/28 16:35:55;;;;;;;1.58;0.98;;;;;;;-2.49;82.21;100093.19;10422680;28;20045;-66
2023/12/28 16:40:57;;;;;;;2.40;1.20;;;;;;;-2.37;82.58;100088.00;10431710;28;20033;-65
2023/12/28 16:46:03;;;;;;;1.60;0.85;;;;;;;-2.36;82.28;100074.34;10432925;28;20061;-66
2023/12/28 16:51:06;;;;;;;1.40;0.85;;;;;;;-2.35;82.01;100070.63;10424683;28;20044;-65
2023/12/28 16:56:10;;;;;;;3.40;0.90;;;;;;;-2.27;81.74;100058.81;10422704;28;20046;-64
2023/12/28 17:01:12;;;;;;;3.63;0.98;;;;;;;-2.27;81.78;100061.50;10412380;28;20508;-66
2023/12/28 17:06:17;;;;;;;1.35;1.02;;;;;;;-2.28;82.42;100058.00;10423783;28;20053;-65
2023/12/28 17:11:20;;;;;;;3.17;1.13;;;;;;;-2.27;83.23;100051.56;10410918;28;20063;-66
2023/12/28 17:16:23;;;;;;;5.50;1.50;;;;;;;-2.29;82.78;100040.22;10420955;28;20049;-68
2023/12/28 17:21:30;;;;;;;3.70;2.00;;;;;;;-2.29;83.09;100042.91;10426996;28;20037;-66
2023/12/28 17:26:46;;;;;;;1.58;1.15;;;;;;;-2.31;83.35;100034.22;10432126;28;20041;-66
2023/12/28 17:31:50;;;;;;;2.60;1.20;;;;;;;-2.29;83.33;100018.72;10432685;28;20052;-67
2023/12/28 17:36:53;;;;;;;2.83;1.33;;;;;;;-2.27;84.10;100018.50;10416802;28;20049;-67
2023/12/28 17:41:55;;;;;;;3.03;1.48;;;;;;;-2.26;84.26;100002.16;10434592;28;20037;-66
2023/12/28 17:47:04;;;;;;;2.40;1.63;;;;;;;-2.24;84.15;100008.19;10441477;28;20064;-64
2023/12/28 17:52:09;;;;;;;3.55;1.92;;;;;;;-2.25;84.08;99995.78;10431645;28;20033;-67
2023/12/28 17:57:12;;;;;;;3.35;1.40;;;;;;;-2.28;84.68;100001.56;10434209;28;20159;-65
2023/12/28 18:02:17;;;;;;;7.47;2.60;;;;;;;-2.26;84.80;99993.28;10419086;28;20056;-68
2023/12/28 18:07:20;;;;;;;8.63;3.58;;;;;;;-2.25;85.58;99987.72;10430536;28;20069;-67
2023/12/28 18:12:23;;;;;;;10.20;3.35;;;;;;;-2.23;86.26;99985.66;10420639;28;20048;-69
2023/12/28 18:17:26;;;;;;;6.70;3.17;;;;;;;-2.22;86.03;99971.16;10428254;28;20042;-70
2023/12/28 18:22:29;;;;;;;6.88;2.65;;;;;;;-2.31;86.83;99964.38;10433115;28;20584;-67
2023/12/28 18:27:31;;;;;;;4.80;2.60;;;;;;;-2.25;87.45;99952.78;10438885;28;20044;-69
2023/12/28 18:32:34;;;;;;;6.38;2.90;;;;;;;-2.27;87.79;99937.91;10426298;28;20049;-72
2023/12/28 18:37:38;;;;;;;7.18;3.05;;;;;;;-2.26;88.57;99934.16;10419411;28;20037;-72
2023/12/28 18:42:41;;;;;;;7.93;3.15;;;;;;;-2.29;89.31;99935.44;10418967;28;20045;-67
2023/12/28 18:47:46;;;;;;;12.15;4.20;;;;;;;-2.29;88.79;99918.47;10443387;28;20051;-69
2023/12/28 18:52:48;;;;;;;10.57;3.90;;;;;;;-2.28;89.07;99912.06;10437751;28;20461;-68
2023/12/28 18:57:51;;;;;;;7.22;4.10;;;;;;;-2.33;89.78;99910.03;10436824;28;20131;-68
2023/12/28 19:02:54;;;;;;;7.97;4.15;;;;;;;-2.37;90.14;99900.75;10427697;28;20076;-69
2023/12/28 19:07:58;;;;;;;11.73;4.28;;;;;;;-2.38;90.83;99896.44;10413608;28;20038;-66
2023/12/28 19:13:00;;;;;;;8.13;4.13;;;;;;;-2.39;90.67;99892.09;10428776;28;20041;-68
2023/12/28 19:18:03;;;;;;;9.40;3.40;;;;;;;-2.43;90.48;99885.47;10408049;28;20038;-68
2023/12/28 19:23:06;;;;;;;7.47;3.10;;;;;;;-2.46;90.87;99880.53;10415418;28;20663;-68
2023/12/28 19:28:09;;;;;;;8.20;3.33;;;;;;;-2.49;91.18;99873.75;10439129;28;20548;-68
2023/12/28 19:33:12;;;;;;;5.13;2.55;;;;;;;-2.42;91.01;99865.66;10413070;28;20428;-68
2023/12/28 19:38:14;;;;;;;5.60;2.83;;;;;;;-2.34;91.09;99856.50;10417798;28;20033;-67
2023/12/28 19:43:17;;;;;;;6.78;2.78;;;;;;;-2.36;91.08;99854.03;10423275;28;20045;-68
2023/12/28 19:48:20;;;;;;;3.47;2.55;;;;;;;-2.29;90.85;99843.25;10426575;28;20643;-68
2023/12/28 19:53:22;;;;;;;8.07;2.92;;;;;;;-2.32;90.45;99844.50;10425294;28;20037;-69
2023/12/28 19:58:24;;;;;;;5.25;2.90;;;;;;;-2.40;90.65;99831.34;10422215;28;20049;-67
2023/12/28 20:03:27;;;;;;;6.22;2.65;;;;;;;-2.40;90.79;99823.28;10418054;28;20040;-68
2023/12/28 20:08:29;;;;;;;5.65;3.13;;;;;;;-2.50;91.13;99829.13;10427934;28;20052;-67
2023/12/28 20:13:31;;;;;;;7.68;3.45;;;;;;;-2.54;91.37;99819.03;10423407;28;20042;-67
2023/12/28 20:18:34;;;;;;;7.05;3.47;;;;;;;-2.59;91.33;99816.19;10407502;28;20045;-67
2023/12/28 20:23:36;;;;;;;9.00;3.83;;;;;;;-2.66;91.77;99823.44;10423516;28;20034;-67
2023/12/28 20:28:39;;;;;;;8.82;3.40;;;;;;;-2.65;91.82;99823.22;10432104;28;20525;-68
2023/12/28 20:33:43;;;;;;;7.50;3.50;;;;;;;-2.61;91.82;99816.38;10428711;28;20049;-66
2023/12/28 20:38:45;;;;;;;8.00;3.60;;;;;;;-2.62;92.72;99816.59;10422846;28;20505;-68
2023/12/28 20:43:51;;;;;;;8.32;3.80;;;;;;;-2.60;92.57;99809.16;10417654;28;20049;-68
2023/12/28 20:48:54;;;;;;;6.10;3.28;;;;;;;-2.75;92.31;99807.59;10412829;28;20053;-68
2023/12/28 20:53:56;;;;;;;9.27;3.92;;;;;;;-2.79;93.11;99794.78;10430536;28;20034;-67
2023/12/28 20:59:02;;;;;;;8.23;4.22;;;;;;;-2.91;92.84;99785.78;10432848;28;20061;-67
2023/12/28 21:04:04;;;;;;;7.00;4.15;;;;;;;-2.96;93.46;99786.41;10424889;28;20044;-67
2023/12/28 21:09:06;;;;;;;6.18;3.80;;;;;;;-2.95;93.72;99781.84;10431439;28;20647;-67
2023/12/28 21:14:12;;;;;;;5.45;3.60;;;;;;;-3.00;93.75;99777.13;10433150;28;20034;-66
2023/12/28 21:19:15;;;;;;;6.47;4.03;;;;;;;-2.98;93.84;99764.31;10423797;28;20041;-67
2023/12/28 21:24:17;;;;;;;6.03;4.05;;;;;;;-2.97;94.34;99765.97;10423837;28;20037;-67
2023/12/28 21:29:20;;;;;;;5.65;3.90;;;;;;;-2.97;94.43;99763.28;10418658;28;20049;-67
2023/12/28 21:34:22;;;;;;;9.65;3.88;;;;;;;-2.89;94.30;99765.75;10431247;28;20034;-67
2023/12/28 21:39:24;;;;;;;7.35;4.38;;;;;;;-2.90;94.36;99758.72;10419260;28;20038;-67
2023/12/28 21:44:26;;;;;;;9.13;5.28;;;;;;;-3.05;94.20;99750.94;10427612;28;20468;-68
2023/12/28 21:49:29;;;;;;;9.55;4.63;;;;;;;-3.03;94.65;99740.81;10430442;28;20046;-68
2023/12/28 21:54:31;;;;;;;6.35;4.40;;;;;;;-2.96;95.07;99730.03;10419309;28;20029;-68
2023/12/28 21:59:34;;;;;;;8.52;5.15;;;;;;;-3.05;94.39;99728.66;10432301;28;20052;-68
2023/12/28 22:04:37;;;;;;;5.60;4.13;;;;;;;-3.31;94.98;99723.41;10429105;28;20457;-68
2023/12/28 22:09:39;;;;;;;6.88;4.70;;;;;;;-3.38;95.45;99718.91;10425063;28;20038;-67
2023/12/28 22:14:41;;;;;;;6.18;4.45;;;;;;;-3.29;96.24;99702.59;10432560;28;20136;-67
2023/12/28 22:19:44;;;;;;;6.95;4.40;;;;;;;-3.30;96.15;99700.91;10428539;28;20048;-66
2023/12/28 22:24:47;;;;;;;6.53;3.97;;;;;;;-3.44;96.24;99690.28;10422453;28;20045;-67
2023/12/28 22:29:50;;;;;;;6.35;4.25;;;;;;;-3.51;96.14;99686.78;10431042;28;20046;-70
2023/12/28 22:34:52;;;;;;;7.40;4.75;;;;;;;-3.45;97.31;99682.44;10430581;28;20421;-67
2023/12/28 22:39:55;;;;;;;6.15;4.10;;;;;;;-3.37;97.31;99680.31;10423950;28;20049;-67
2023/12/28 22:44:57;;;;;;;6.57;4.40;;;;;;;-3.44;97.30;99684.09;10431102;28;20042;-66
2023/12/28 22:49:59;;;;;;;6.03;4.10;;;;;;;-3.55;98.12;99658.75;10415796;28;20037;-67
2023/12/28 22:55:04;;;;;;;5.57;4.28;;;;;;;-3.50;97.92;99666.16;10425374;28;20041;-66
2023/12/28 23:00:16;;;;;;;5.88;4.13;;;;;;;-3.58;98.59;99658.38;10417204;28;20046;-67
2023/12/28 23:05:19;;;;;;;4.75;3.95;;;;;;;-3.54;98.65;99654.22;10401823;28;20129;-67
2023/12/28 23:10:22;;;;;;;7.28;4.70;;;;;;;-3.55;98.63;99656.06;10423826;28;20052;-67
2023/12/28 23:15:29;;;;;;;7.18;4.70;;;;;;;-3.58;98.94;99647.66;10416067;28;20047;-67